createdAt,value
2022-11-08T00:02:23.526Z,94582.97
2022-11-08T00:04:50.344Z,94579.56
2022-11-08T00:07:35.545Z,94588.41
2022-11-08T00:10:21.086Z,94579.25
2022-11-08T00:13:06.445Z,94577.91
2022-11-08T00:15:38.918Z,94575.56
2022-11-08T00:18:07.318Z,94577.00
2022-11-08T00:20:34.122Z,94575.19
2022-11-08T00:23:01.084Z,94578.69
2022-11-08T00:25:27.722Z,94577.63
2022-11-08T00:27:54.404Z,94579.34
2022-11-08T00:30:21.023Z,94575.69
2022-11-08T00:32:47.908Z,94575.28
2022-11-08T00:35:14.667Z,94578.19
2022-11-08T00:37:41.235Z,94579.81
2022-11-08T00:40:08.235Z,94576.41
2022-11-08T00:42:34.860Z,94577.25
2022-11-08T00:45:01.528Z,94572.41
2022-11-08T00:47:28.170Z,94577.84
2022-11-08T00:49:55.359Z,94578.97
2022-11-08T00:52:22.142Z,94573.88
2022-11-08T00:54:48.778Z,94578.91
2022-11-08T00:57:15.386Z,94576.56
2022-11-08T00:59:42.068Z,94577.41
2022-11-08T01:02:08.706Z,94573.47
2022-11-08T01:04:35.479Z,94571.06
2022-11-08T01:07:02.330Z,94569.59
2022-11-08T01:09:29.009Z,94572.19
2022-11-08T01:11:55.619Z,94568.25
2022-11-08T01:14:22.259Z,94574.03
2022-11-08T01:16:48.902Z,94569.00
2022-11-08T01:19:15.489Z,94569.28
2022-11-08T01:21:42.078Z,94571.41
2022-11-08T01:24:08.955Z,94559.19
2022-11-08T01:26:35.548Z,94572.16
2022-11-08T01:29:02.292Z,94566.03
2022-11-08T01:31:31.941Z,94571.25
2022-11-08T01:33:59.635Z,94569.84
2022-11-08T01:36:28.592Z,94565.88
2022-11-08T01:38:56.365Z,94565.81
2022-11-08T01:41:24.944Z,94573.34
2022-11-08T01:43:56.793Z,94573.66
2022-11-08T01:46:33.028Z,94566.91
2022-11-08T01:49:17.222Z,94568.16
2022-11-08T01:52:04.826Z,94564.41
2022-11-08T01:55:04.949Z,94570.16
2022-11-08T01:57:38.661Z,94558.28
2022-11-08T02:00:08.579Z,94572.22
2022-11-08T02:02:36.975Z,94572.91
2022-11-08T02:05:06.647Z,94574.72
2022-11-08T02:07:34.724Z,94577.00
2022-11-08T02:10:03.249Z,94571.78
2022-11-08T02:12:30.347Z,94569.00
2022-11-08T02:14:57.158Z,94577.00
2022-11-08T02:17:23.765Z,94573.25
2022-11-08T02:19:51.203Z,94571.19
2022-11-08T02:22:33.430Z,94572.81
2022-11-08T02:25:00.398Z,94581.94
2022-11-08T02:27:27.082Z,94580.94
2022-11-08T02:29:55.834Z,94573.13
2022-11-08T02:32:23.310Z,94576.66
2022-11-08T02:34:56.288Z,94580.94
2022-11-08T02:37:23.774Z,94580.41
2022-11-08T02:39:50.463Z,94571.13
2022-11-08T02:42:19.864Z,94568.44
2022-11-08T02:44:47.412Z,94558.47
2022-11-08T02:47:14.424Z,94560.31
2022-11-08T02:49:41.168Z,94560.44
2022-11-08T02:52:08.028Z,94555.66
2022-11-08T02:54:34.802Z,94557.81
2022-11-08T02:57:01.448Z,94556.22
2022-11-08T02:59:28.074Z,94553.94
2022-11-08T03:01:54.829Z,94552.44
2022-11-08T03:04:21.589Z,94560.59
2022-11-08T03:06:48.230Z,94558.97
2022-11-08T03:09:14.868Z,94563.78
2022-11-08T03:11:41.591Z,94566.84
2022-11-08T03:14:08.364Z,94560.09
2022-11-08T03:16:35.032Z,94570.78
2022-11-08T03:19:01.831Z,94568.56
2022-11-08T03:21:28.557Z,94569.09
2022-11-08T03:23:55.183Z,94571.63
2022-11-08T03:26:21.908Z,94572.41
2022-11-08T03:28:48.571Z,94570.00
2022-11-08T03:31:15.169Z,94572.56
2022-11-08T03:33:41.797Z,94578.94
2022-11-08T03:36:08.770Z,94572.03
2022-11-08T03:38:35.452Z,94577.72
2022-11-08T03:41:02.047Z,94593.13
2022-11-08T03:43:28.659Z,94579.47
2022-11-08T03:45:55.318Z,94584.09
2022-11-08T03:48:23.724Z,94584.88
2022-11-08T03:50:53.159Z,94582.03
2022-11-08T03:53:19.752Z,94582.66
2022-11-08T03:55:46.449Z,94585.16
2022-11-08T03:58:13.231Z,94589.72
2022-11-08T04:00:39.945Z,94586.56
2022-11-08T04:03:06.597Z,94577.16
2022-11-08T04:05:33.628Z,94580.47
2022-11-08T04:08:03.089Z,94583.38
2022-11-08T04:10:29.749Z,94576.56
2022-11-08T04:13:18.241Z,94576.56
2022-11-08T04:15:46.061Z,94575.31
2022-11-08T04:18:31.459Z,94565.03
2022-11-08T04:21:18.948Z,94574.03
2022-11-08T04:23:46.610Z,94575.31
2022-11-08T04:26:13.382Z,94570.28
2022-11-08T04:28:41.498Z,94577.63
2022-11-08T04:31:18.100Z,94569.91
2022-11-08T04:33:45.006Z,94566.91
2022-11-08T04:36:14.155Z,94567.28
2022-11-08T04:38:41.128Z,94574.72
2022-11-08T04:41:11.479Z,94566.84
2022-11-08T04:43:38.684Z,94567.13
2022-11-08T04:46:07.977Z,94564.97
2022-11-08T04:48:35.575Z,94566.78
2022-11-08T04:51:07.752Z,94572.72
2022-11-08T04:53:34.875Z,94581.00
2022-11-08T04:56:12.798Z,94581.13
2022-11-08T04:58:42.003Z,94590.44
2022-11-08T05:01:11.130Z,94594.03
2022-11-08T05:03:37.810Z,94592.28
2022-11-08T05:06:06.801Z,94590.78
2022-11-08T05:08:33.953Z,94587.09
2022-11-08T05:11:05.290Z,94585.31
2022-11-08T05:13:32.046Z,94599.25
2022-11-08T05:16:07.629Z,94589.97
2022-11-08T05:18:34.958Z,94589.25
2022-11-08T05:21:21.223Z,94585.91
2022-11-08T05:23:49.894Z,94589.31
2022-11-08T05:26:18.404Z,94585.31
2022-11-08T05:28:45.013Z,94596.66
2022-11-08T05:31:12.392Z,94591.47
2022-11-08T05:33:38.972Z,94587.88
2022-11-08T05:36:08.220Z,94584.91
2022-11-08T05:38:34.960Z,94590.50
2022-11-08T05:41:14.090Z,94582.97
2022-11-08T05:43:40.728Z,94588.88
2022-11-08T05:46:08.103Z,94591.50
2022-11-08T05:48:35.425Z,94593.06
2022-11-08T05:51:02.169Z,94605.31
2022-11-08T05:53:28.969Z,94605.66
2022-11-08T05:55:59.872Z,94617.66
2022-11-08T05:58:27.273Z,94612.94
2022-11-08T06:01:12.575Z,94617.84
2022-11-08T06:03:39.685Z,94622.19
2022-11-08T06:06:09.138Z,94628.09
2022-11-08T06:08:36.152Z,94629.34
2022-11-08T06:11:10.735Z,94625.59
2022-11-08T06:13:37.960Z,94627.56
2022-11-08T06:16:07.197Z,94635.50
2022-11-08T06:18:34.740Z,94630.97
2022-11-08T06:21:02.881Z,94634.50
2022-11-08T06:23:29.633Z,94632.41
2022-11-08T06:25:56.580Z,94642.56
2022-11-08T06:28:23.483Z,94639.31
2022-11-08T06:30:50.724Z,94641.97
2022-11-08T06:33:18.223Z,94654.06
2022-11-08T06:35:45.157Z,94649.34
2022-11-08T06:38:12.058Z,94657.09
2022-11-08T06:40:39.991Z,94652.72
2022-11-08T06:43:06.719Z,94658.59
2022-11-08T06:45:33.472Z,94652.31
2022-11-08T06:48:01.808Z,94662.25
2022-11-08T06:50:30.240Z,94658.31
2022-11-08T06:53:05.950Z,94659.38
2022-11-08T06:55:33.870Z,94659.00
2022-11-08T06:58:01.023Z,94662.53
2022-11-08T07:00:28.247Z,94654.84
2022-11-08T07:02:56.424Z,94663.44
2022-11-08T07:05:23.629Z,94662.69
2022-11-08T07:07:53.626Z,94652.16
2022-11-08T07:10:22.961Z,94658.72
2022-11-08T07:12:50.947Z,94662.97
2022-11-08T07:15:17.943Z,94662.28
2022-11-08T07:17:44.585Z,94662.53
2022-11-08T07:20:11.725Z,94660.16
2022-11-08T07:22:38.345Z,94663.03
2022-11-08T07:25:05.636Z,94667.22
2022-11-08T07:27:32.359Z,94669.13
2022-11-08T07:29:59.925Z,94667.56
2022-11-08T07:32:26.546Z,94669.91
2022-11-08T07:34:53.107Z,94669.41
2022-11-08T07:37:19.707Z,94673.44
2022-11-08T07:39:46.311Z,94679.38
2022-11-08T07:42:12.893Z,94671.63
2022-11-08T07:44:39.524Z,94673.00
2022-11-08T07:47:06.218Z,94671.97
2022-11-08T07:49:32.808Z,94668.94
2022-11-08T07:51:59.391Z,94674.78
2022-11-08T07:54:26.024Z,94676.06
2022-11-08T07:56:52.609Z,94677.31
2022-11-08T07:59:19.196Z,94672.66
2022-11-08T08:01:45.853Z,94677.31
2022-11-08T08:04:12.668Z,94676.94
2022-11-08T08:06:39.303Z,94667.63
2022-11-08T08:09:05.942Z,94674.72
2022-11-08T08:11:33.935Z,94672.28
2022-11-08T08:14:00.775Z,94666.59
2022-11-08T08:16:27.368Z,94671.88
2022-11-08T08:18:56.686Z,94671.88
2022-11-08T08:21:23.721Z,94670.84
2022-11-08T08:23:50.396Z,94674.56
2022-11-08T08:26:17.006Z,94671.28
2022-11-08T08:28:43.628Z,94674.34
2022-11-08T08:31:10.190Z,94680.94
2022-11-08T08:33:37.966Z,94671.06
2022-11-08T08:36:05.277Z,94679.97
2022-11-08T08:38:33.383Z,94677.47
2022-11-08T08:41:00.947Z,94677.25
2022-11-08T08:43:27.917Z,94675.28
2022-11-08T08:45:58.243Z,94682.47
2022-11-08T08:48:24.861Z,94684.38
2022-11-08T08:50:51.499Z,94684.16
2022-11-08T08:53:18.416Z,94685.59
2022-11-08T08:55:45.160Z,94689.13
2022-11-08T08:58:11.877Z,94687.41
2022-11-08T09:03:25.667Z,94686.78
2022-11-08T09:05:52.257Z,94693.97
2022-11-08T09:08:19.069Z,94687.06
2022-11-08T09:10:45.953Z,94688.13
2022-11-08T09:13:12.547Z,94690.84
2022-11-08T09:15:39.603Z,94678.75
2022-11-08T09:18:06.764Z,94679.47
2022-11-08T09:20:33.430Z,94679.50
2022-11-08T09:23:03.937Z,94682.84
2022-11-08T09:25:31.316Z,94688.47
2022-11-08T09:27:57.939Z,94691.91
2022-11-08T09:30:24.598Z,94682.13
2022-11-08T09:33:00.899Z,94684.41
2022-11-08T09:35:29.183Z,94680.47
2022-11-08T09:37:56.208Z,94678.06
2022-11-08T09:40:39.663Z,94672.13
2022-11-08T09:43:27.394Z,94669.97
2022-11-08T09:45:56.148Z,94670.03
2022-11-08T09:48:38.890Z,94671.88
2022-11-08T09:51:18.307Z,94663.72
2022-11-08T09:53:51.906Z,94663.78
2022-11-08T09:56:21.605Z,94670.03
2022-11-08T09:58:54.846Z,94675.25
2022-11-08T10:01:26.838Z,94668.63
2022-11-08T10:03:57.657Z,94662.56
2022-11-08T10:06:59.398Z,94660.03
2022-11-08T10:09:40.597Z,94659.44
2022-11-08T10:12:31.701Z,94653.31
2022-11-08T10:15:30.315Z,94642.22
2022-11-08T10:17:57.293Z,94638.25
2022-11-08T10:20:26.909Z,94638.53
2022-11-08T10:23:23.923Z,94641.41
2022-11-08T10:25:54.775Z,94638.31
2022-11-08T10:28:42.128Z,94633.34
2022-11-08T10:31:12.811Z,94627.44
2022-11-08T10:34:00.672Z,94624.22
2022-11-08T10:36:54.551Z,94618.88
2022-11-08T10:39:27.941Z,94619.78
2022-11-08T10:42:08.151Z,94617.38
2022-11-08T10:44:35.510Z,94616.97
2022-11-08T10:47:05.729Z,94618.66
2022-11-08T10:49:34.998Z,94621.44
2022-11-08T10:52:16.565Z,94610.97
2022-11-08T10:54:45.898Z,94610.53
2022-11-08T10:57:17.953Z,94613.06
2022-11-08T10:59:45.481Z,94609.97
2022-11-08T11:02:35.458Z,94598.56
2022-11-08T11:05:21.829Z,94601.78
2022-11-08T11:08:01.915Z,94606.06
2022-11-08T11:10:46.663Z,94599.91
2022-11-08T11:16:05.601Z,94589.91
2022-11-08T11:18:46.842Z,94592.81
2022-11-08T11:21:22.168Z,94591.19
2022-11-08T11:24:10.248Z,94591.53
2022-11-08T11:27:05.220Z,94590.75
2022-11-08T11:29:34.648Z,94594.91
2022-11-08T11:32:40.152Z,94596.25
2022-11-08T11:35:14.257Z,94590.19
2022-11-08T11:37:46.055Z,94587.78
2022-11-08T11:40:18.474Z,94589.66
2022-11-08T11:43:02.844Z,94583.41
2022-11-08T11:45:36.587Z,94590.56
2022-11-08T11:48:11.913Z,94581.84
2022-11-08T11:50:41.092Z,94575.75
2022-11-08T11:53:16.566Z,94578.69
2022-11-08T11:56:13.513Z,94572.50
2022-11-08T11:58:51.822Z,94569.03
2022-11-08T12:01:30.210Z,94576.97
2022-11-08T12:04:30.718Z,94573.22
2022-11-08T12:07:18.002Z,94565.34
2022-11-08T12:09:47.461Z,94571.19
2022-11-08T12:12:36.005Z,94572.44
2022-11-08T12:15:23.978Z,94567.22
2022-11-08T12:18:02.864Z,94571.44
2022-11-08T12:20:48.221Z,94558.59
2022-11-08T12:23:36.022Z,94556.66
2022-11-08T12:26:30.141Z,94563.94
2022-11-08T12:29:24.151Z,94553.00
2022-11-08T12:32:46.346Z,94558.00
2022-11-08T12:35:19.841Z,94550.09
2022-11-08T12:38:11.026Z,94554.72
2022-11-08T12:41:02.433Z,94553.63
2022-11-08T12:43:47.455Z,94543.25
2022-11-08T12:46:19.156Z,94544.16
2022-11-08T12:49:12.160Z,94551.78
2022-11-08T12:51:52.440Z,94546.59
2022-11-08T12:54:39.292Z,94544.69
2022-11-08T12:57:11.561Z,94549.38
2022-11-08T12:59:58.452Z,94547.28
2022-11-08T13:02:30.167Z,94548.94
2022-11-08T13:05:08.273Z,94540.09
2022-11-08T13:07:43.647Z,94545.63
2022-11-08T13:10:43.889Z,94554.13
2022-11-08T13:13:32.046Z,94548.28
2022-11-08T13:16:16.925Z,94552.44
2022-11-08T13:18:56.478Z,94547.53
2022-11-08T13:21:28.782Z,94549.06
2022-11-08T13:24:43.325Z,94547.94
2022-11-08T13:27:38.852Z,94552.63
2022-11-08T13:30:05.658Z,94547.13
2022-11-08T13:32:44.139Z,94553.03
2022-11-08T13:35:19.810Z,94549.94
2022-11-08T13:37:55.650Z,94556.09
2022-11-08T13:40:39.481Z,94550.31
2022-11-08T13:43:27.074Z,94555.34
2022-11-08T13:45:54.312Z,94553.25
2022-11-08T13:48:37.756Z,94555.34
2022-11-08T13:51:24.109Z,94557.69
2022-11-08T13:53:58.128Z,94552.44
2022-11-08T13:56:56.850Z,94562.59
2022-11-08T13:59:29.295Z,94559.41
2022-11-08T14:02:15.816Z,94558.53
2022-11-08T14:04:42.476Z,94558.34
2022-11-08T14:07:22.237Z,94550.50
2022-11-08T14:10:10.615Z,94554.03
2022-11-08T14:12:43.060Z,94559.91
2022-11-08T14:15:28.712Z,94552.28
2022-11-08T14:18:00.142Z,94549.72
2022-11-08T14:20:36.402Z,94554.75
2022-11-08T14:23:11.868Z,94546.59
2022-11-08T14:25:39.946Z,94558.56
2022-11-08T14:28:29.837Z,94560.16
2022-11-08T14:30:57.921Z,94559.00
2022-11-08T14:33:32.153Z,94556.31
2022-11-08T14:36:02.770Z,94557.78
2022-11-08T14:38:32.742Z,94553.97
2022-11-08T14:41:02.662Z,94559.38
2022-11-08T14:43:29.866Z,94565.50
2022-11-08T14:46:00.219Z,94572.00
2022-11-08T14:48:31.267Z,94564.59
2022-11-08T14:50:59.501Z,94569.97
2022-11-08T14:53:31.689Z,94568.78
2022-11-08T14:56:08.253Z,94564.44
2022-11-08T14:58:34.914Z,94567.47
2022-11-08T15:01:03.853Z,94567.50
2022-11-08T15:03:31.952Z,94568.53
2022-11-08T15:06:07.302Z,94563.84
2022-11-08T15:08:45.452Z,94559.66
2022-11-08T15:11:28.626Z,94566.50
2022-11-08T15:14:02.253Z,94568.75
2022-11-08T15:16:39.254Z,94564.88
2022-11-08T15:19:18.371Z,94574.34
2022-11-08T15:21:49.390Z,94567.28
2022-11-08T15:24:16.994Z,94554.78
2022-11-08T15:27:12.046Z,94556.47
2022-11-08T15:29:55.012Z,94563.97
2022-11-08T15:32:23.231Z,94573.63
2022-11-08T15:34:56.910Z,94568.94
2022-11-08T15:37:36.711Z,94560.97
2022-11-08T15:40:16.387Z,94565.78
2022-11-08T15:42:45.175Z,94567.28
2022-11-08T15:45:14.480Z,94571.09
2022-11-08T15:47:46.485Z,94564.81
2022-11-08T15:50:13.247Z,94559.78
2022-11-08T15:52:43.038Z,94562.22
2022-11-08T15:55:17.853Z,94564.19
2022-11-08T15:57:46.838Z,94580.81
2022-11-08T16:00:27.958Z,94570.00
2022-11-08T16:02:55.280Z,94575.94
2022-11-08T16:05:24.347Z,94575.09
2022-11-08T16:07:51.581Z,94573.69
2022-11-08T16:10:21.797Z,94574.81
2022-11-08T16:12:48.622Z,94576.00
2022-11-08T16:15:17.829Z,94580.63
2022-11-08T16:17:44.498Z,94578.50
2022-11-08T16:20:27.742Z,94582.91
2022-11-08T16:22:58.980Z,94583.28
2022-11-08T16:25:28.436Z,94579.75
2022-11-08T16:28:02.685Z,94583.34
2022-11-08T16:30:31.535Z,94587.59
2022-11-08T16:32:58.521Z,94588.91
2022-11-08T16:35:25.733Z,94589.69
2022-11-08T16:37:53.616Z,94591.38
2022-11-08T16:40:24.830Z,94594.75
2022-11-08T16:42:53.132Z,94599.75
2022-11-08T16:45:43.469Z,94595.38
2022-11-08T16:48:16.528Z,94597.88
2022-11-08T16:50:43.841Z,94598.78
2022-11-08T16:53:21.493Z,94604.06
2022-11-08T16:55:49.048Z,94602.25
2022-11-08T16:58:15.944Z,94606.91
2022-11-08T17:00:44.313Z,94613.88
2022-11-08T17:03:18.475Z,94607.19
2022-11-08T17:05:45.169Z,94613.88
2022-11-08T17:08:11.794Z,94611.28
2022-11-08T17:10:38.607Z,94613.41
2022-11-08T17:13:05.260Z,94621.16
2022-11-08T17:15:32.037Z,94637.03
2022-11-08T17:17:59.253Z,94630.78
2022-11-08T17:20:27.236Z,94621.66
2022-11-08T17:22:54.324Z,94629.97
2022-11-08T17:25:23.166Z,94635.69
2022-11-08T17:27:51.406Z,94638.06
2022-11-08T17:30:23.799Z,94639.69
2022-11-08T17:32:53.077Z,94650.19
2022-11-08T17:35:19.729Z,94649.94
2022-11-08T17:37:46.367Z,94642.34
2022-11-08T17:40:13.093Z,94647.63
2022-11-08T17:42:39.792Z,94636.91
2022-11-08T17:45:08.804Z,94635.56
2022-11-08T17:47:36.454Z,94633.75
2022-11-08T17:50:03.339Z,94628.38
2022-11-08T17:52:29.987Z,94638.38
2022-11-08T17:54:56.707Z,94633.41
2022-11-08T17:57:23.333Z,94629.88
2022-11-08T17:59:50.522Z,94633.44
2022-11-08T18:02:17.402Z,94633.09
2022-11-08T18:04:44.290Z,94628.47
2022-11-08T18:07:10.972Z,94625.00
2022-11-08T18:09:37.768Z,94633.44
2022-11-08T18:12:16.228Z,94633.84
2022-11-08T18:14:49.267Z,94622.66
2022-11-08T18:17:15.883Z,94632.38
2022-11-08T18:19:44.739Z,94613.81
2022-11-08T18:22:11.389Z,94629.25
2022-11-08T18:24:49.910Z,94626.53
2022-11-08T18:27:17.252Z,94625.00
2022-11-08T18:29:44.092Z,94629.25
2022-11-08T18:32:10.763Z,94628.28
2022-11-08T18:34:37.415Z,94625.88
2022-11-08T18:37:04.117Z,94626.91
2022-11-08T18:39:30.758Z,94621.63
2022-11-08T18:41:57.325Z,94629.13
2022-11-08T18:44:24.055Z,94630.34
2022-11-08T18:46:50.831Z,94627.97
2022-11-08T18:49:17.503Z,94638.06
2022-11-08T18:51:44.233Z,94644.13
2022-11-08T18:54:10.863Z,94636.19
2022-11-08T18:56:38.765Z,94634.53
2022-11-08T18:59:06.538Z,94636.09
2022-11-08T19:01:33.191Z,94633.81
2022-11-08T19:03:59.853Z,94639.31
2022-11-08T19:06:26.640Z,94637.34
2022-11-08T19:08:53.709Z,94640.38
2022-11-08T19:11:22.952Z,94642.22
2022-11-08T19:13:49.809Z,94646.16
2022-11-08T19:16:18.991Z,94647.22
2022-11-08T19:18:46.874Z,94647.16
2022-11-08T19:21:16.421Z,94651.03
2022-11-08T19:23:43.615Z,94651.78
2022-11-08T19:26:13.425Z,94652.19
2022-11-08T19:28:42.480Z,94641.81
2022-11-08T19:31:09.138Z,94657.47
2022-11-08T19:33:36.385Z,94656.59
2022-11-08T19:36:05.974Z,94658.94
2022-11-08T19:38:37.453Z,94664.34
2022-11-08T19:41:06.228Z,94659.38
2022-11-08T19:43:37.898Z,94668.56
2022-11-08T19:46:07.904Z,94667.16
2022-11-08T19:48:37.671Z,94671.16
2022-11-08T19:51:07.031Z,94676.88
2022-11-08T19:53:34.368Z,94676.28
2022-11-08T19:56:02.517Z,94669.44
2022-11-08T19:58:31.696Z,94667.44
2022-11-08T20:00:58.440Z,94676.41
2022-11-08T20:03:25.276Z,94666.81
2022-11-08T20:05:53.688Z,94671.50
2022-11-08T20:08:21.478Z,94670.38
2022-11-08T20:10:49.894Z,94677.84
2022-11-08T20:13:16.550Z,94673.50
2022-11-08T20:15:43.357Z,94685.03
2022-11-08T20:18:11.381Z,94675.47
2022-11-08T20:20:42.310Z,94682.22
2022-11-08T20:23:09.832Z,94680.38
2022-11-08T20:25:36.480Z,94676.28
2022-11-08T20:28:03.760Z,94677.31
2022-11-08T20:30:30.948Z,94679.56
2022-11-08T20:32:57.691Z,94683.19
2022-11-08T20:35:24.292Z,94675.75
2022-11-08T20:37:51.096Z,94678.09
2022-11-08T20:40:17.710Z,94678.44
2022-11-08T20:42:50.433Z,94684.00
2022-11-08T20:45:17.202Z,94677.06
2022-11-08T20:47:43.891Z,94682.22
2022-11-08T20:50:11.129Z,94683.88
2022-11-08T20:52:40.585Z,94687.66
2022-11-08T20:55:07.426Z,94684.16
2022-11-08T20:57:34.008Z,94684.59
2022-11-08T21:00:13.185Z,94684.78
2022-11-08T21:02:40.497Z,94681.81
2022-11-08T21:05:25.446Z,94679.41
2022-11-08T21:08:57.319Z,94686.63
2022-11-08T21:11:05.016Z,94693.72
2022-11-08T21:13:33.750Z,94690.03
2022-11-08T21:16:19.747Z,94691.56
2022-11-08T21:18:47.823Z,94692.09
2022-11-08T21:21:17.351Z,94688.19
2022-11-08T21:23:46.881Z,94693.44
2022-11-08T21:26:15.158Z,94685.59
2022-11-08T21:31:53.360Z,94676.56
2022-11-08T21:34:20.023Z,94679.31
2022-11-08T21:36:46.588Z,94682.41
2022-11-08T21:39:14.240Z,94678.56
2022-11-08T21:41:40.913Z,94679.91
2022-11-08T21:44:07.511Z,94672.69
2022-11-08T21:46:34.084Z,94675.25
2022-11-08T21:49:03.581Z,94680.50
2022-11-08T21:51:31.479Z,94680.78
2022-11-08T21:53:59.093Z,94678.56
2022-11-08T21:56:29.385Z,94686.72
2022-11-08T21:58:56.277Z,94684.22
2022-11-08T22:01:27.184Z,94680.00
2022-11-08T22:03:56.438Z,94685.97
2022-11-08T22:06:23.178Z,94683.38
2022-11-08T22:08:49.940Z,94686.06
2022-11-08T22:11:16.522Z,94688.25
2022-11-08T22:13:43.145Z,94693.25
2022-11-08T22:16:09.925Z,94695.63
2022-11-08T22:18:58.651Z,94698.28
2022-11-08T22:21:40.532Z,94691.84
2022-11-08T22:24:08.804Z,94683.69
2022-11-08T22:26:36.087Z,94690.16
2022-11-08T22:29:03.487Z,94695.88
2022-11-08T22:31:31.147Z,94689.06
2022-11-08T22:33:57.726Z,94685.31
2022-11-08T22:36:24.565Z,94681.06
2022-11-08T22:38:51.266Z,94690.69
2022-11-08T22:41:19.884Z,94688.38
2022-11-08T22:43:47.394Z,94682.31
2022-11-08T22:46:14.694Z,94685.50
2022-11-08T22:48:41.439Z,94691.38
2022-11-08T22:51:08.381Z,94686.31
2022-11-08T22:53:35.416Z,94682.50
2022-11-08T22:56:08.300Z,94689.66
2022-11-08T22:58:37.931Z,94691.56
2022-11-08T23:01:05.149Z,94684.72
2022-11-08T23:03:32.034Z,94683.69
2022-11-08T23:05:58.744Z,94681.09
2022-11-08T23:08:26.967Z,94685.00
2022-11-08T23:11:12.842Z,94685.59
2022-11-08T23:13:58.344Z,94681.41
2022-11-08T23:16:37.769Z,94681.44
2022-11-08T23:19:25.886Z,94685.69
2022-11-08T23:22:12.755Z,94683.81
2022-11-08T23:24:40.609Z,94693.97
2022-11-08T23:27:26.005Z,94686.81
2022-11-08T23:30:11.133Z,94688.97
2022-11-08T23:32:43.249Z,94687.16
2022-11-08T23:35:10.634Z,94691.97
2022-11-08T23:37:37.459Z,94687.66
2022-11-08T23:40:24.380Z,94691.22
2022-11-08T23:43:24.470Z,94696.59
2022-11-08T23:45:51.509Z,94691.47
2022-11-08T23:48:18.199Z,94692.59
2022-11-08T23:50:53.014Z,94690.53
2022-11-08T23:53:22.234Z,94687.31
2022-11-08T23:55:49.056Z,94692.75
2022-11-08T23:58:15.745Z,94698.38
